National Geographic Sea Lion — WUR9646 — position and weather

sailwx.info

Track history (hours):
 
Tides and Currents Weather Stations Pressure Air Temp Water Temp Dewpoint Dewpoint Depression Visibility Wind Speed Wind Dir Waves Ship Positions

National Geographic Sea Lion

Owner: Lindblad Expeditions, Inc., SEATTLE, WA. More information available from US FCC via Universal Licensing System and Coast Guard Vessel Documentation Center.

Last reported at 2017-Apr-24 11:00 UTC. Time now 2017-Apr-24 11:18 UTC.
Position N 35°43' W 121°44'.

Length 45 m; draft 2.4 m.

Type: Passenger vessel. MMSI: 366396000.

Date/timePositionNaut miles runAvg speedWind from/ knotsBaromVisibWave heightAir tempDewpointWater temp
2017-Apr-24 11:00N 35°43' W 121°44'3 6.3
2017-Apr-24 10:30N 35°40' W 121°42'3 6.1
2017-Apr-24 10:00N 35°38' W 121°40'15 5.6
2017-Apr-24 07:20N 35°25' W 121°30'3 5.3
2017-Apr-24 06:48N 35°23' W 121°28'4 5.5
2017-Apr-24 06:08N 35°20' W 121°26'1 5.6
2017-Apr-24 06:00N 35°19' W 121°25'3 5.4
2017-Apr-24 05:30N 35°17' W 121°23'3 5.5
2017-Apr-24 05:00N 35°15' W 121°21'3 5.4
2017-Apr-24 04:30N 35°12' W 121°19'3 5.3
2017-Apr-24 04:00N 35°10' W 121°18'3 5.6
2017-Apr-24 03:30N 35°08' W 121°16'3 5.3
2017-Apr-24 03:00N 35°06' W 121°14'3 5.1
2017-Apr-24 02:30N 35°04' W 121°12'3 5.0
2017-Apr-24 01:59N 35°01' W 121°11'3 5.7
2017-Apr-24 01:30N 34°59' W 121°09'3 5.6
2017-Apr-24 01:00N 34°56' W 121°08'3 5.9
2017-Apr-24 00:30N 34°54' W 121°06'3 5.7
2017-Apr-24 00:00N 34°52' W 121°04'3 5.3
2017-Apr-23 23:30N 34°49' W 121°02'3 5.3
2017-Apr-23 22:59N 34°47' W 121°00'3 5.6
2017-Apr-23 22:30N 34°45' W 120°58'3 5.6
2017-Apr-23 22:00N 34°43' W 120°56'3 5.5
2017-Apr-23 21:30N 34°40' W 120°55'3 5.2
2017-Apr-23 21:00N 34°38' W 120°53'3 5.7
2017-Apr-23 20:30N 34°36' W 120°51'3 5.9
2017-Apr-23 20:00N 34°33' W 120°49'3 6.0
2017-Apr-23 19:30N 34°31' W 120°47'3 6.0
2017-Apr-23 19:00N 34°28' W 120°45'4 6.1
2017-Apr-23 18:18N 34°25' W 120°42'2 6.6
2017-Apr-23 18:00N 34°24' W 120°40'3 6.9
2017-Apr-23 17:30N 34°23' W 120°36'4 7.1
2017-Apr-23 17:00N 34°22' W 120°32'4 7.4
2017-Apr-23 16:30N 34°21' W 120°27'4 7.3
2017-Apr-23 16:00N 34°20' W 120°23'4 7.7
2017-Apr-23 15:28N 34°19' W 120°18'4 7.8
2017-Apr-23 15:00N 34°18' W 120°14'9 8.4
2017-Apr-23 13:57N 34°16' W 120°03'4 8.9
2017-Apr-23 13:29N 34°15' W 119°59'5 9.8
2017-Apr-23 12:58N 34°13' W 119°53'5 9.9
2017-Apr-23 12:30N 34°12' W 119°47'5 9.4
2017-Apr-23 12:00N 34°11' W 119°42'5 9.5
2017-Apr-23 11:30N 34°09' W 119°36'5 9.7
2017-Apr-23 10:59N 34°08' W 119°31'5 9.6
2017-Apr-23 10:29N 34°06' W 119°25'5 9.9
2017-Apr-23 09:57N 34°05' W 119°19'510.4
2017-Apr-23 09:30N 34°04' W 119°14'510.4
2017-Apr-23 09:00N 34°01' W 119°08'510.8
2017-Apr-23 08:30N 33°59' W 119°02'611.3
2017-Apr-23 08:00N 33°56' W 118°56'611.4
2017-Apr-23 07:26N 33°53' W 118°50'510.9
2017-Apr-23 07:00N 33°50' W 118°45'510.9
2017-Apr-23 06:30N 33°48' W 118°39'510.9
2017-Apr-23 06:00N 33°45' W 118°33'510.5
2017-Apr-23 05:30N 33°42' W 118°28'510.5
2017-Apr-23 05:00N 33°40' W 118°22'510.9
2017-Apr-23 04:30N 33°38' W 118°16'611.3
2017-Apr-23 04:00N 33°36' W 118°10'510.6
2017-Apr-23 03:30N 33°31' W 118°07'511.0
2017-Apr-23 03:00N 33°26' W 118°05'611.3
2017-Apr-23 02:30N 33°21' W 118°03'611.0
2017-Apr-23 02:00N 33°16' W 117°58'511.0
2017-Apr-23 01:30N 33°12' W 117°54'510.7
2017-Apr-23 01:00N 33°08' W 117°50'510.6
2017-Apr-23 00:30N 33°04' W 117°46'510.6
2017-Apr-23 00:00N 33°00' W 117°42'510.7
2017-Apr-22 23:31N 32°56' W 117°38'510.7
2017-Apr-22 23:00N 32°52' W 117°33'510.9
2017-Apr-22 22:30N 32°48' W 117°29'510.6
2017-Apr-22 22:01N 32°44' W 117°25'510.5
2017-Apr-22 21:30N 32°40' W 117°21'510.6
2017-Apr-22 21:00N 32°37' W 117°16'4 7.7
2017-Apr-22 20:31N 32°41' W 117°14'3 6.2
2017-Apr-22 20:00N 32°43' W 117°12'2 3.8
2017-Apr-22 19:29N 32°42' W 117°10'0 0.0
2017-Apr-21 17:29N 32°42' W 117°10'2 4.7
2017-Apr-21 17:01N 32°43' W 117°12'3 5.6
2017-Apr-21 16:30N 32°41' W 117°14'510.2
2017-Apr-21 16:01N 32°36' W 117°15'511.0
2017-Apr-21 15:30N 32°31' W 117°18'510.7
2017-Apr-21 15:00N 32°26' W 117°20'510.8
2017-Apr-21 14:31N 32°20' W 117°17'1910.8
2017-Apr-21 12:44N 32°03' W 117°08'310.8
2017-Apr-21 12:29N 32°00' W 117°07'510.7
2017-Apr-21 12:00N 31°55' W 117°05'510.5
2017-Apr-21 11:30N 31°51' W 117°03'50 9.1
2017-Apr-21 05:59N 31°04' W 116°40'4 8.1
2017-Apr-21 05:29N 31°00' W 116°38'62 7.6
2017-Apr-20 21:16N 30°01' W 116°17'104 8.0
2017-Apr-20 08:10N 28°21' W 115°42'3 8.5
2017-Apr-20 07:52N 28°18' W 115°41'  
Track history (hours):
 
Tides and Currents Weather Stations Pressure Air Temp Water Temp Dewpoint Dewpoint Depression Visibility Wind Speed Wind Dir Waves Ship Positions

National Geographic Sea Lion

Owner: Lindblad Expeditions, Inc., SEATTLE, WA. More information available from US FCC via Universal Licensing System and Coast Guard Vessel Documentation Center.

Last reported at 2017-Apr-24 11:00 UTC. Time now 2017-Apr-24 11:18 UTC.
Position N 35°43' W 121°44'.

Length 45 m; draft 2.4 m.

Type: Passenger vessel. MMSI: 366396000.

Date/timePositionNaut miles runAvg speedWind from/ knotsBaromVisibWave heightAir tempDewpointWater temp
2017-Apr-24 11:00N 35°43' W 121°44'3 6.3
2017-Apr-24 10:30N 35°40' W 121°42'3 6.1
2017-Apr-24 10:00N 35°38' W 121°40'15 5.6
2017-Apr-24 07:20N 35°25' W 121°30'3 5.3
2017-Apr-24 06:48N 35°23' W 121°28'4 5.5
2017-Apr-24 06:08N 35°20' W 121°26'1 5.6
2017-Apr-24 06:00N 35°19' W 121°25'3 5.4
2017-Apr-24 05:30N 35°17' W 121°23'3 5.5
2017-Apr-24 05:00N 35°15' W 121°21'3 5.4
2017-Apr-24 04:30N 35°12' W 121°19'3 5.3
2017-Apr-24 04:00N 35°10' W 121°18'3 5.6
2017-Apr-24 03:30N 35°08' W 121°16'3 5.3
2017-Apr-24 03:00N 35°06' W 121°14'3 5.1
2017-Apr-24 02:30N 35°04' W 121°12'3 5.0
2017-Apr-24 01:59N 35°01' W 121°11'3 5.7
2017-Apr-24 01:30N 34°59' W 121°09'3 5.6
2017-Apr-24 01:00N 34°56' W 121°08'3 5.9
2017-Apr-24 00:30N 34°54' W 121°06'3 5.7
2017-Apr-24 00:00N 34°52' W 121°04'3 5.3
2017-Apr-23 23:30N 34°49' W 121°02'3 5.3
2017-Apr-23 22:59N 34°47' W 121°00'3 5.6
2017-Apr-23 22:30N 34°45' W 120°58'3 5.6
2017-Apr-23 22:00N 34°43' W 120°56'3 5.5
2017-Apr-23 21:30N 34°40' W 120°55'3 5.2
2017-Apr-23 21:00N 34°38' W 120°53'3 5.7
2017-Apr-23 20:30N 34°36' W 120°51'3 5.9
2017-Apr-23 20:00N 34°33' W 120°49'3 6.0
2017-Apr-23 19:30N 34°31' W 120°47'3 6.0
2017-Apr-23 19:00N 34°28' W 120°45'4 6.1
2017-Apr-23 18:18N 34°25' W 120°42'2 6.6
2017-Apr-23 18:00N 34°24' W 120°40'3 6.9
2017-Apr-23 17:30N 34°23' W 120°36'4 7.1
2017-Apr-23 17:00N 34°22' W 120°32'4 7.4
2017-Apr-23 16:30N 34°21' W 120°27'4 7.3
2017-Apr-23 16:00N 34°20' W 120°23'4 7.7
2017-Apr-23 15:28N 34°19' W 120°18'4 7.8
2017-Apr-23 15:00N 34°18' W 120°14'9 8.4
2017-Apr-23 13:57N 34°16' W 120°03'4 8.9
2017-Apr-23 13:29N 34°15' W 119°59'5 9.8
2017-Apr-23 12:58N 34°13' W 119°53'5 9.9
2017-Apr-23 12:30N 34°12' W 119°47'5 9.4
2017-Apr-23 12:00N 34°11' W 119°42'5 9.5
2017-Apr-23 11:30N 34°09' W 119°36'5 9.7
2017-Apr-23 10:59N 34°08' W 119°31'5 9.6
2017-Apr-23 10:29N 34°06' W 119°25'5 9.9
2017-Apr-23 09:57N 34°05' W 119°19'510.4
2017-Apr-23 09:30N 34°04' W 119°14'510.4
2017-Apr-23 09:00N 34°01' W 119°08'510.8
2017-Apr-23 08:30N 33°59' W 119°02'611.3
2017-Apr-23 08:00N 33°56' W 118°56'611.4
2017-Apr-23 07:26N 33°53' W 118°50'510.9
2017-Apr-23 07:00N 33°50' W 118°45'510.9
2017-Apr-23 06:30N 33°48' W 118°39'510.9
2017-Apr-23 06:00N 33°45' W 118°33'510.5
2017-Apr-23 05:30N 33°42' W 118°28'510.5
2017-Apr-23 05:00N 33°40' W 118°22'510.9
2017-Apr-23 04:30N 33°38' W 118°16'611.3
2017-Apr-23 04:00N 33°36' W 118°10'510.6
2017-Apr-23 03:30N 33°31' W 118°07'511.0
2017-Apr-23 03:00N 33°26' W 118°05'611.3
2017-Apr-23 02:30N 33°21' W 118°03'611.0
2017-Apr-23 02:00N 33°16' W 117°58'511.0
2017-Apr-23 01:30N 33°12' W 117°54'510.7
2017-Apr-23 01:00N 33°08' W 117°50'510.6
2017-Apr-23 00:30N 33°04' W 117°46'510.6
2017-Apr-23 00:00N 33°00' W 117°42'510.7
2017-Apr-22 23:31N 32°56' W 117°38'510.7
2017-Apr-22 23:00N 32°52' W 117°33'510.9
2017-Apr-22 22:30N 32°48' W 117°29'510.6
2017-Apr-22 22:01N 32°44' W 117°25'510.5
2017-Apr-22 21:30N 32°40' W 117°21'510.6
2017-Apr-22 21:00N 32°37' W 117°16'4 7.7
2017-Apr-22 20:31N 32°41' W 117°14'3 6.2
2017-Apr-22 20:00N 32°43' W 117°12'2 3.8
2017-Apr-22 19:29N 32°42' W 117°10'0 0.0
2017-Apr-21 17:29N 32°42' W 117°10'2 4.7
2017-Apr-21 17:01N 32°43' W 117°12'3 5.6
2017-Apr-21 16:30N 32°41' W 117°14'510.2
2017-Apr-21 16:01N 32°36' W 117°15'511.0
2017-Apr-21 15:30N 32°31' W 117°18'510.7
2017-Apr-21 15:00N 32°26' W 117°20'510.8
2017-Apr-21 14:31N 32°20' W 117°17'1910.8
2017-Apr-21 12:44N 32°03' W 117°08'310.8
2017-Apr-21 12:29N 32°00' W 117°07'510.7
2017-Apr-21 12:00N 31°55' W 117°05'510.5
2017-Apr-21 11:30N 31°51' W 117°03'50 9.1
2017-Apr-21 05:59N 31°04' W 116°40'4 8.1
2017-Apr-21 05:29N 31°00' W 116°38'62 7.6
2017-Apr-20 21:16N 30°01' W 116°17'104 8.0
2017-Apr-20 08:10N 28°21' W 115°42'3 8.5
2017-Apr-20 07:52N 28°18' W 115°41'  

Dump ship's entire track history